Time;durP1;ratioP1;P1;durP2;ratioP2;P2;SDS_P1;SDS_P2;PMS_P1;PMS_P2;Temp;Humidity;BMP_temperature;BMP_pressure;BME280_temperature;BME280_humidity;BME280_pressure;Samples;Min_cycle;Max_cycle;Signal;HPM_P1;HPM_P2
2021/09/18 14:34:05;;;;;;;6.38;1.13;;;21.20;81.70;;;;;;6360624;22;20090;-89
2021/09/18 14:36:31;;;;;;;4.85;1.20;;;20.90;78.70;;;;;;6281435;22;20022;-86
2021/09/18 14:38:58;;;;;;;2.78;1.48;;;20.70;79.30;;;;;;6255682;22;20118;-88
2021/09/18 14:41:24;;;;;;;1.30;0.80;;;20.60;79.60;;;;;;6278114;22;20010;-88
2021/09/18 14:43:50;;;;;;;2.03;0.90;;;20.50;78.50;;;;;;6309107;22;20057;-91
2021/09/18 14:46:16;;;;;;;3.13;0.70;;;20.30;78.70;;;;;;6301397;22;20379;-89
2021/09/18 14:48:42;;;;;;;1.00;0.80;;;20.10;78.90;;;;;;6277670;22;20463;-90
2021/09/18 14:51:09;;;;;;;1.88;0.80;;;20.00;79.50;;;;;;6283316;22;20014;-90
2021/09/18 14:53:35;;;;;;;1.08;0.85;;;19.90;80.30;;;;;;6280470;22;20301;-89
2021/09/18 14:56:05;;;;;;;2.75;1.00;;;19.70;81.10;;;;;;6276753;22;20063;-89
2021/09/18 14:58:31;;;;;;;1.48;0.90;;;19.60;82.30;;;;;;6303445;22;20022;-91
2021/09/18 15:01:02;;;;;;;2.50;0.90;;;19.50;83.50;;;;;;6279804;22;20017;-91
2021/09/18 15:03:28;;;;;;;1.15;0.85;;;19.50;84.40;;;;;;6273198;22;20018;-89
2021/09/18 15:05:54;;;;;;;1.10;1.00;;;19.40;84.20;;;;;;6280955;22;20011;-89
2021/09/18 15:08:20;;;;;;;2.15;1.00;;;19.40;84.90;;;;;;6278891;22;20018;-89
2021/09/18 15:10:46;;;;;;;2.50;1.13;;;19.30;84.40;;;;;;6280430;22;20032;-86
2021/09/18 15:13:12;;;;;;;2.22;1.02;;;19.30;84.60;;;;;;6280543;22;20071;-88
2021/09/18 15:15:38;;;;;;;0.95;0.80;;;19.20;85.10;;;;;;6306117;22;20446;-88
2021/09/18 15:18:06;;;;;;;1.00;0.80;;;19.20;85.80;;;;;;6253245;22;20068;-88
2021/09/18 15:20:32;;;;;;;2.80;0.90;;;19.20;86.50;;;;;;6279695;22;20392;-89
2021/09/18 15:23:02;;;;;;;2.78;1.10;;;19.20;87.60;;;;;;6308067;22;20451;-90
2021/09/18 15:25:29;;;;;;;2.65;1.10;;;19.20;88.50;;;;;;6280497;22;20382;-89
2021/09/18 15:28:00;;;;;;;1.58;1.10;;;19.20;88.70;;;;;;6281469;22;20018;-91
2021/09/18 15:30:26;;;;;;;1.48;1.20;;;19.30;88.90;;;;;;6306995;22;20014;-90
2021/09/18 15:33:13;;;;;;;1.80;1.55;;;19.40;88.40;;;;;;6307834;22;20014;-93
2021/09/18 15:35:39;;;;;;;2.30;1.30;;;19.50;88.00;;;;;;6305805;22;20014;-89
2021/09/18 15:38:09;;;;;;;6.65;1.88;;;19.60;88.80;;;;;;6333759;22;20540;-92
2021/09/18 15:40:35;;;;;;;4.43;1.40;;;19.80;89.20;;;;;;6260880;22;20056;-90
2021/09/18 15:43:01;;;;;;;3.33;1.50;;;19.80;88.00;;;;;;6313502;22;20215;-90
2021/09/18 15:45:26;;;;;;;6.25;3.45;;;19.70;88.40;;;;;;6261503;22;20025;-92
2021/09/18 15:47:52;;;;;;;4.78;2.15;;;19.70;89.20;;;;;;6261125;22;20395;-90
2021/09/18 15:50:18;;;;;;;9.73;8.27;;;19.60;90.00;;;;;;6285941;22;20013;-93
2021/09/18 15:52:44;;;;;;;10.77;9.52;;;19.50;90.50;;;;;;6285622;22;20049;-90
2021/09/18 15:55:10;;;;;;;29.67;26.65;;;19.50;91.10;;;;;;6313857;22;20075;-89
2021/09/18 15:57:38;;;;;;;6.85;6.18;;;19.40;91.30;;;;;;6312017;22;20010;-92
2021/09/18 16:00:11;;;;;;;14.68;13.18;;;19.30;91.20;;;;;;6288612;22;20308;-91
2021/09/18 16:02:37;;;;;;;15.15;12.57;;;19.20;91.60;;;;;;6311696;22;20014;-92
2021/09/18 16:05:04;;;;;;;8.38;7.28;;;19.20;91.80;;;;;;6313749;22;20032;-91
2021/09/18 16:07:31;;;;;;;2.28;1.77;;;19.10;92.20;;;;;;6307469;22;20022;-91
2021/09/18 16:09:57;;;;;;;8.85;6.43;;;19.10;92.20;;;;;;6285103;22;20187;-90
2021/09/18 16:12:23;;;;;;;6.05;4.85;;;19.00;92.30;;;;;;6310255;22;20018;-90
2021/09/18 16:14:49;;;;;;;11.10;7.28;;;18.90;92.50;;;;;;6312198;22;20019;-90
2021/09/18 16:17:15;;;;;;;12.55;9.65;;;18.90;92.80;;;;;;6285814;22;20017;-86
2021/09/18 16:19:41;;;;;;;11.07;8.13;;;18.90;93.20;;;;;;6308408;22;20010;-88
2021/09/18 16:22:07;;;;;;;38.20;29.05;;;18.90;93.40;;;;;;6303360;22;20017;-88
2021/09/18 16:24:34;;;;;;;29.98;22.92;;;18.80;93.40;;;;;;6336788;22;20438;-87
2021/09/18 16:27:00;;;;;;;14.55;9.02;;;18.80;93.50;;;;;;6285123;22;20010;-88
2021/09/18 16:29:26;;;;;;;40.65;30.52;;;18.80;93.40;;;;;;6257040;22;20111;-88
2021/09/18 16:31:52;;;;;;;34.15;25.17;;;18.80;93.30;;;;;;6281906;22;20014;-88
2021/09/18 16:34:17;;;;;;;9.15;8.23;;;18.80;93.50;;;;;;6309221;22;20021;-87
2021/09/18 16:36:43;;;;;;;4.30;2.70;;;18.80;93.70;;;;;;6280856;22;20097;-87
2021/09/18 16:39:09;;;;;;;3.97;3.25;;;18.80;93.60;;;;;;6300038;22;20014;-88
2021/09/18 16:41:35;;;;;;;2.92;1.67;;;18.80;93.60;;;;;;6303893;22;20014;-90
2021/09/18 16:44:01;;;;;;;2.22;1.85;;;18.80;93.00;;;;;;6306295;22;20342;-89
2021/09/18 16:46:26;;;;;;;6.45;2.33;;;18.80;92.70;;;;;;6283264;22;20021;-89
2021/09/18 16:48:55;;;;;;;4.85;3.05;;;18.80;92.50;;;;;;6310730;22;20053;-88
2021/09/18 16:51:21;;;;;;;2.47;1.52;;;18.80;92.10;;;;;;6311119;22;20010;-89
2021/09/18 16:53:47;;;;;;;2.65;1.20;;;18.70;91.90;;;;;;6284946;22;20017;-90
2021/09/18 16:56:13;;;;;;;1.40;1.23;;;18.70;91.90;;;;;;6283082;22;20203;-88
2021/09/18 16:58:39;;;;;;;1.73;1.25;;;18.60;91.90;;;;;;6309254;22;20015;-87
2021/09/18 17:01:08;;;;;;;2.53;1.40;;;18.60;92.20;;;;;;6307649;22;20018;-89
2021/09/18 17:03:34;;;;;;;5.18;1.80;;;18.60;92.60;;;;;;6259457;22;20025;-89
2021/09/18 17:05:59;;;;;;;3.47;1.40;;;18.50;93.00;;;;;;6308737;22;20036;-90
2021/09/18 17:08:25;;;;;;;2.88;1.92;;;18.50;93.30;;;;;;6281906;22;20098;-87
2021/09/18 17:10:51;;;;;;;3.22;1.30;;;18.40;93.50;;;;;;6280661;22;20022;-89
2021/09/18 17:13:17;;;;;;;2.92;1.45;;;18.40;93.70;;;;;;6305418;22;20020;-90
2021/09/18 17:15:43;;;;;;;9.13;1.80;;;18.30;93.90;;;;;;6282289;22;20396;-89
2021/09/18 17:18:09;;;;;;;2.63;1.58;;;18.20;94.00;;;;;;6307347;22;20018;-90
2021/09/18 17:20:36;;;;;;;3.15;1.90;;;18.20;94.20;;;;;;6310891;22;20014;-88
2021/09/18 17:23:01;;;;;;;2.38;1.70;;;18.10;94.40;;;;;;6309505;22;20017;-92
2021/09/18 17:25:27;;;;;;;2.25;1.60;;;18.10;94.70;;;;;;6258169;22;20486;-90
2021/09/18 17:27:53;;;;;;;3.83;1.80;;;18.00;94.80;;;;;;6260183;22;20018;-90
2021/09/18 17:30:19;;;;;;;5.90;1.65;;;17.90;95.00;;;;;;6310340;22;20010;-90
2021/09/18 17:32:45;;;;;;;3.40;1.75;;;17.90;95.20;;;;;;6259672;22;20391;-89
2021/09/18 17:35:11;;;;;;;4.28;2.50;;;17.80;95.30;;;;;;6336752;22;20049;-88
2021/09/18 17:37:36;;;;;;;3.13;2.00;;;17.80;95.50;;;;;;6285786;22;20011;-89
2021/09/18 17:40:04;;;;;;;2.53;2.10;;;17.70;95.70;;;;;;6310576;22;20129;-89
2021/09/18 17:42:30;;;;;;;5.70;2.72;;;17.60;95.90;;;;;;6310376;22;20026;-90
2021/09/18 17:44:58;;;;;;;5.68;2.67;;;17.60;96.00;;;;;;6284771;22;20032;-89
2021/09/18 17:47:24;;;;;;;3.20;2.15;;;17.50;96.20;;;;;;6307822;22;20350;-88
2021/09/18 17:49:52;;;;;;;4.95;2.70;;;17.50;96.40;;;;;;6282180;22;20097;-90
2021/09/18 17:52:19;;;;;;;7.45;2.90;;;17.40;96.50;;;;;;6306436;22;20010;-89
2021/09/18 17:54:46;;;;;;;3.88;2.90;;;17.30;96.60;;;;;;6306313;22;20053;-89
2021/09/18 17:57:13;;;;;;;3.42;2.63;;;17.30;96.90;;;;;;6309548;22;20049;-90
2021/09/18 17:59:39;;;;;;;6.68;2.97;;;17.30;96.90;;;;;;6308624;22;20127;-90
2021/09/18 18:02:08;;;;;;;8.43;3.05;;;17.20;97.10;;;;;;6308739;22;20029;-89
2021/09/18 18:04:37;;;;;;;4.22;2.88;;;17.20;97.20;;;;;;6283426;22;20010;-89
2021/09/18 18:07:05;;;;;;;4.65;2.40;;;17.10;97.20;;;;;;6281812;22;20014;-89
2021/09/18 18:09:31;;;;;;;3.70;2.80;;;17.00;97.20;;;;;;6282429;22;20022;-89
2021/09/18 18:11:57;;;;;;;4.50;3.03;;;17.00;97.30;;;;;;6281964;22;20022;-88
2021/09/18 18:14:22;;;;;;;4.57;2.22;;;16.90;97.40;;;;;;6308263;22;20010;-89
2021/09/18 18:16:48;;;;;;;4.82;2.53;;;16.90;97.50;;;;;;6256505;22;20386;-90
2021/09/18 18:19:14;;;;;;;5.03;2.85;;;16.80;97.50;;;;;;6309007;22;20011;-89
2021/09/18 18:21:40;;;;;;;6.80;3.55;;;16.80;97.60;;;;;;6283380;22;20101;-88
2021/09/18 18:24:08;;;;;;;8.77;3.50;;;16.70;97.70;;;;;;6258180;22;20010;-90
2021/09/18 18:26:34;;;;;;;6.03;2.95;;;16.70;97.90;;;;;;6284857;22;20426;-89
2021/09/18 18:29:00;;;;;;;5.03;3.30;;;16.60;98.00;;;;;;6307559;22;20114;-89
2021/09/18 18:31:26;;;;;;;5.43;3.40;;;16.50;98.00;;;;;;6258529;22;20339;-89
2021/09/18 18:33:52;;;;;;;3.75;3.40;;;16.50;98.10;;;;;;6309580;22;20039;-89
2021/09/18 18:36:18;;;;;;;4.80;3.30;;;16.40;98.10;;;;;;6282283;22;20013;-89
2021/09/18 18:38:44;;;;;;;5.57;3.35;;;16.40;98.30;;;;;;6280781;22;20010;-89
2021/09/18 18:41:12;;;;;;;5.93;3.80;;;16.30;98.40;;;;;;6307143;22;20535;-89
2021/09/18 18:43:38;;;;;;;5.38;3.70;;;16.20;98.50;;;;;;6305751;22;20021;-89
2021/09/18 18:46:04;;;;;;;4.25;3.35;;;16.20;98.60;;;;;;6280547;22;20010;-89
2021/09/18 18:48:30;;;;;;;4.97;3.67;;;16.10;98.70;;;;;;6281763;22;20295;-88
2021/09/18 18:50:58;;;;;;;6.07;4.22;;;16.10;98.80;;;;;;6307193;22;20500;-89
2021/09/18 18:53:27;;;;;;;4.10;3.70;;;16.00;98.90;;;;;;6311364;22;20064;-89
2021/09/18 18:55:53;;;;;;;9.95;4.18;;;16.10;99.00;;;;;;6296098;22;20018;-90
2021/09/18 18:58:19;;;;;;;6.93;4.30;;;16.00;99.20;;;;;;6310690;22;20040;-88
2021/09/18 19:00:46;;;;;;;7.35;4.85;;;16.00;99.20;;;;;;6288272;22;20244;-88
2021/09/18 19:03:12;;;;;;;5.47;4.55;;;16.00;99.30;;;;;;6283473;22;20093;-89
2021/09/18 19:05:38;;;;;;;6.30;4.72;;;15.90;99.30;;;;;;6284033;22;20515;-90
2021/09/18 19:08:07;;;;;;;6.93;4.47;;;15.90;99.40;;;;;;6310076;22;20079;-89
2021/09/18 19:10:33;;;;;;;7.15;4.85;;;15.90;99.50;;;;;;6308016;22;20018;-88
2021/09/18 19:13:01;;;;;;;5.78;5.00;;;15.80;99.60;;;;;;6283195;22;20496;-90
2021/09/18 19:15:27;;;;;;;7.55;5.55;;;15.80;99.70;;;;;;6259036;22;20686;-89
2021/09/18 19:17:53;;;;;;;8.82;6.00;;;15.80;99.80;;;;;;6309328;22;20021;-88
2021/09/18 19:23:58;;;;;;;8.82;6.35;;;15.70;99.90;;;;;;6297755;22;20022;-89
2021/09/18 19:26:24;;;;;;;6.68;6.00;;;15.60;99.90;;;;;;6309325;22;20018;-89
2021/09/18 19:28:53;;;;;;;8.80;7.25;;;15.60;99.90;;;;;;6283881;22;20018;-89
2021/09/18 19:31:20;;;;;;;7.30;5.78;;;15.50;99.90;;;;;;6256417;22;20021;-89
2021/09/18 19:33:46;;;;;;;8.20;6.72;;;15.50;99.90;;;;;;6309773;22;20017;-89
2021/09/18 19:36:12;;;;;;;10.13;7.82;;;15.50;99.90;;;;;;6281769;22;20140;-89
2021/09/18 19:38:38;;;;;;;9.65;8.02;;;15.50;99.90;;;;;;6255300;22;20097;-87
2021/09/18 19:41:04;;;;;;;10.40;8.48;;;15.40;99.90;;;;;;6281503;22;20022;-88
2021/09/18 19:43:31;;;;;;;10.38;8.52;;;15.40;99.90;;;;;;6306788;22;20014;-88
2021/09/18 19:45:58;;;;;;;12.38;7.90;;;15.40;99.90;;;;;;6282956;22;20042;-91
2021/09/18 19:48:24;;;;;;;10.38;8.30;;;15.40;99.90;;;;;;6306378;22;20018;-89
2021/09/18 19:50:50;;;;;;;9.82;8.82;;;15.40;99.90;;;;;;6281856;22;20343;-87
2021/09/18 19:53:18;;;;;;;11.20;8.45;;;15.40;99.90;;;;;;6308469;22;20010;-88
2021/09/18 19:55:44;;;;;;;11.90;8.82;;;15.40;99.90;;;;;;6258503;22;20015;-88
2021/09/18 19:58:10;;;;;;;12.40;8.30;;;15.30;99.90;;;;;;6280923;22;20037;-88
2021/09/18 20:00:39;;;;;;;10.60;8.93;;;15.30;99.90;;;;;;6256386;22;20014;-88
2021/09/18 20:03:05;;;;;;;12.88;8.93;;;15.30;99.90;;;;;;6283558;22;20021;-88
2021/09/18 20:05:31;;;;;;;10.95;9.85;;;15.30;99.90;;;;;;6258126;22;20093;-89
2021/09/18 20:07:57;;;;;;;12.35;9.57;;;15.30;99.90;;;;;;6257744;22;20053;-88
2021/09/18 20:10:23;;;;;;;11.18;9.48;;;15.30;99.90;;;;;;6255733;22;20088;-88
2021/09/18 20:12:48;;;;;;;11.23;9.98;;;15.30;99.90;;;;;;6282945;22;20006;-89
2021/09/18 20:15:14;;;;;;;14.27;10.98;;;15.30;99.90;;;;;;6282067;22;20308;-87
2021/09/18 20:17:41;;;;;;;11.27;10.13;;;15.30;99.90;;;;;;6281556;22;20097;-88
2021/09/18 20:20:08;;;;;;;12.68;10.60;;;15.30;99.90;;;;;;6308010;22;20021;-89
2021/09/18 20:22:34;;;;;;;12.43;11.13;;;15.30;99.90;;;;;;6308140;22;20025;-87
2021/09/18 20:25:00;;;;;;;12.52;10.65;;;15.30;99.90;;;;;;6282725;22;20010;-88
2021/09/18 20:27:26;;;;;;;13.80;11.00;;;15.30;99.90;;;;;;6283319;22;20015;-88
2021/09/18 20:29:53;;;;;;;13.88;11.80;;;15.30;99.90;;;;;;6281649;22;20063;-89
2021/09/18 20:32:20;;;;;;;13.63;11.85;;;15.20;99.90;;;;;;6281243;22;20337;-89
2021/09/18 20:34:46;;;;;;;13.88;12.48;;;15.30;99.90;;;;;;6283740;22;20067;-90
2021/09/18 20:37:12;;;;;;;16.27;12.70;;;15.20;99.90;;;;;;6308906;22;20412;-87
2021/09/18 20:39:38;;;;;;;13.10;11.80;;;15.30;99.90;;;;;;6282403;22;20016;-89
2021/09/18 20:42:05;;;;;;;13.48;11.80;;;15.20;99.90;;;;;;6283148;22;20455;-89
2021/09/18 20:44:30;;;;;;;13.65;11.85;;;15.20;99.90;;;;;;6283126;22;20110;-89
2021/09/18 20:46:56;;;;;;;13.07;11.10;;;15.30;99.90;;;;;;6282623;22;20014;-89
2021/09/18 20:49:22;;;;;;;13.32;11.88;;;15.30;99.90;;;;;;6282002;22;20067;-88
2021/09/18 20:51:48;;;;;;;13.23;11.82;;;15.30;99.90;;;;;;6282850;22;20041;-87
2021/09/18 20:54:14;;;;;;;13.35;11.30;;;15.30;99.90;;;;;;6310844;22;20010;-89
2021/09/18 20:56:41;;;;;;;18.45;11.00;;;15.20;99.90;;;;;;6310094;22;20018;-89
2021/09/18 20:59:08;;;;;;;12.15;10.77;;;15.30;99.90;;;;;;6310068;22;20019;-89
2021/09/18 21:06:50;;;;;;;13.48;11.40;;;15.20;99.90;;;;;;6336036;22;20242;-89
2021/09/18 21:09:18;;;;;;;14.80;11.48;;;15.20;99.90;;;;;;6307985;22;20010;-89
2021/09/18 21:11:45;;;;;;;12.32;11.02;;;15.20;99.90;;;;;;6284092;22;20037;-90
2021/09/18 21:14:11;;;;;;;17.30;11.77;;;15.20;99.90;;;;;;6327504;22;20014;-89
2021/09/18 21:16:38;;;;;;;12.65;11.35;;;15.10;99.90;;;;;;6325578;22;20014;-88
2021/09/18 21:19:03;;;;;;;14.32;12.05;;;15.10;99.90;;;;;;6281041;22;20053;-87
2021/09/18 21:21:30;;;;;;;13.43;11.82;;;15.10;99.90;;;;;;6308586;22;20018;-88
2021/09/18 21:23:57;;;;;;;12.75;10.95;;;15.10;99.90;;;;;;6281713;22;20491;-89
2021/09/18 21:26:23;;;;;;;12.77;11.05;;;15.10;99.90;;;;;;6308359;22;20056;-88
2021/09/18 21:28:49;;;;;;;13.07;11.52;;;15.10;99.90;;;;;;6279518;22;20050;-88
2021/09/18 21:31:15;;;;;;;15.25;11.55;;;15.10;99.90;;;;;;6310213;22;20042;-88
2021/09/18 21:33:41;;;;;;;12.23;10.65;;;15.00;99.90;;;;;;6310313;22;20025;-88
2021/09/18 21:36:07;;;;;;;13.43;11.00;;;15.10;99.90;;;;;;6284686;22;20010;-88
2021/09/18 21:38:33;;;;;;;14.15;11.52;;;15.10;99.90;;;;;;6309624;22;20070;-87
2021/09/18 21:40:58;;;;;;;13.65;11.43;;;15.10;99.90;;;;;;6308629;22;20014;-88
2021/09/18 21:43:27;;;;;;;12.45;11.15;;;15.00;99.90;;;;;;6279698;22;20018;-89
2021/09/18 21:45:54;;;;;;;15.20;12.10;;;15.00;99.90;;;;;;6309460;22;20720;-89
2021/09/18 21:48:21;;;;;;;13.77;12.10;;;15.10;99.90;;;;;;6309332;22;20514;-89
2021/09/18 21:50:48;;;;;;;13.05;11.57;;;15.00;99.90;;;;;;6307575;22;20015;-87
2021/09/18 21:53:13;;;;;;;15.88;11.57;;;15.10;99.90;;;;;;6283948;22;20042;-88
2021/09/18 21:55:40;;;;;;;11.82;10.60;;;15.10;99.90;;;;;;6285067;22;20010;-87
2021/09/18 21:58:06;;;;;;;13.90;11.23;;;15.10;99.90;;;;;;6286510;22;20645;-88
2021/09/18 22:00:32;;;;;;;14.10;10.48;;;15.10;99.90;;;;;;6283201;22;20093;-88
2021/09/18 22:03:03;;;;;;;12.73;10.68;;;15.10;99.90;;;;;;6309584;22;20111;-86
2021/09/18 22:05:30;;;;;;;10.80;9.70;;;15.10;99.90;;;;;;6311288;22;20145;-87
2021/09/18 22:07:56;;;;;;;16.42;11.35;;;15.10;99.90;;;;;;6285305;22;20021;-87
2021/09/18 22:10:22;;;;;;;10.98;9.85;;;15.10;99.90;;;;;;6283999;22;20363;-88
2021/09/18 22:12:48;;;;;;;11.80;10.55;;;15.10;99.90;;;;;;6257438;22;20068;-89
2021/09/18 22:15:16;;;;;;;11.93;10.27;;;15.10;99.90;;;;;;6285358;22;20023;-89
2021/09/18 22:17:42;;;;;;;11.85;10.50;;;15.10;99.90;;;;;;6311079;22;20508;-89
2021/09/18 22:20:09;;;;;;;11.48;10.27;;;15.10;99.90;;;;;;6310236;22;20704;-89
2021/09/18 22:22:35;;;;;;;16.52;10.60;;;15.10;99.90;;;;;;6311610;22;20014;-88
2021/09/18 22:25:04;;;;;;;11.50;10.05;;;15.10;99.90;;;;;;6284437;22;20107;-91
2021/09/18 22:27:30;;;;;;;12.90;10.00;;;15.10;99.90;;;;;;6307981;22;20024;-89
2021/09/18 22:29:55;;;;;;;15.13;10.43;;;15.10;99.90;;;;;;6305115;22;20463;-88
2021/09/18 22:32:23;;;;;;;11.95;9.65;;;15.10;99.90;;;;;;6282338;22;20776;-87
2021/09/18 22:34:50;;;;;;;10.82;9.40;;;15.20;99.90;;;;;;6261552;22;20075;-89
2021/09/18 22:37:16;;;;;;;11.27;10.18;;;15.20;99.90;;;;;;6309371;22;20561;-88
2021/09/18 22:39:44;;;;;;;13.23;9.60;;;15.20;99.90;;;;;;6307733;22;20014;-88
2021/09/18 22:42:10;;;;;;;9.77;8.75;;;15.20;99.90;;;;;;6282816;22;20010;-88
2021/09/18 22:44:35;;;;;;;10.98;9.80;;;15.20;99.90;;;;;;6283404;22;20033;-87
2021/09/18 22:47:05;;;;;;;14.10;9.60;;;15.20;99.90;;;;;;6309930;22;20371;-87
2021/09/18 22:49:30;;;;;;;13.45;9.25;;;15.20;99.90;;;;;;6309936;22;20128;-89
2021/09/18 22:51:56;;;;;;;10.55;9.50;;;15.20;99.90;;;;;;6286140;22;20064;-90
2021/09/18 22:54:30;;;;;;;10.98;8.85;;;15.20;99.90;;;;;;6259777;22;20007;-88
2021/09/18 22:56:56;;;;;;;11.32;8.45;;;15.20;99.90;;;;;;6310330;22;20010;-89
2021/09/18 22:59:22;;;;;;;9.73;8.40;;;15.20;99.90;;;;;;6257784;22;20089;-91
2021/09/18 23:01:48;;;;;;;9.73;7.97;;;15.20;99.90;;;;;;6310697;22;20010;-88
2021/09/18 23:04:14;;;;;;;8.75;7.85;;;15.20;99.90;;;;;;6286601;22;20465;-86
2021/09/18 23:06:43;;;;;;;8.75;7.70;;;15.30;99.90;;;;;;6309309;22;20014;-89
2021/09/18 23:09:10;;;;;;;8.88;7.97;;;15.20;99.90;;;;;;6283875;22;20010;-88
2021/09/18 23:11:36;;;;;;;10.52;7.88;;;15.30;99.90;;;;;;6307017;22;20041;-87
2021/09/18 23:14:05;;;;;;;12.20;7.90;;;15.30;99.90;;;;;;6281682;22;20071;-89
2021/09/18 23:16:31;;;;;;;7.72;6.93;;;15.30;99.90;;;;;;6305064;22;20014;-88
2021/09/18 23:18:57;;;;;;;9.38;6.78;;;15.30;99.90;;;;;;6305534;22;20014;-87
2021/09/18 23:21:23;;;;;;;7.97;6.68;;;15.30;99.90;;;;;;6308939;22;20045;-87
2021/09/18 23:23:49;;;;;;;9.93;6.95;;;15.20;99.90;;;;;;6310537;22;20021;-88
2021/09/18 23:26:15;;;;;;;9.82;7.22;;;15.20;99.90;;;;;;6286934;22;20014;-91
2021/09/18 23:28:44;;;;;;;7.93;7.10;;;15.30;99.90;;;;;;6286584;22;20216;-87
2021/09/18 23:31:10;;;;;;;10.38;6.50;;;15.20;99.90;;;;;;6294330;22;20017;-88
2021/09/18 23:33:36;;;;;;;8.32;6.00;;;15.20;99.90;;;;;;6328368;22;20033;-90
2021/09/18 23:36:02;;;;;;;9.80;6.20;;;15.20;99.90;;;;;;6311335;22;20014;-87
2021/09/18 23:38:28;;;;;;;8.18;6.00;;;15.20;99.90;;;;;;6311929;22;20025;-90
2021/09/18 23:41:00;;;;;;;6.25;5.65;;;15.20;99.90;;;;;;6313428;22;20078;-90
2021/09/18 23:43:25;;;;;;;8.07;4.97;;;15.20;99.90;;;;;;6311892;22;20474;-89
2021/09/18 23:45:51;;;;;;;6.25;4.93;;;15.20;99.90;;;;;;6313334;22;20015;-90
2021/09/18 23:48:17;;;;;;;6.40;5.07;;;15.20;99.90;;;;;;6285990;22;20075;-89
2021/09/18 23:50:43;;;;;;;7.38;4.80;;;15.20;99.90;;;;;;6307949;22;20010;-89
2021/09/18 23:53:09;;;;;;;8.10;4.32;;;15.20;99.90;;;;;;6286975;22;20010;-86
2021/09/18 23:55:35;;;;;;;5.93;4.55;;;15.20;99.90;;;;;;6286033;22;20014;-89
2021/09/18 23:58:00;;;;;;;6.82;4.40;;;15.20;99.90;;;;;;6285714;22;20037;-88
